sensor_id;sensor_type;location;lat;lon;timestamp;P1;durP1;ratioP1;P2;durP2;ratioP2
18501;SDS011;68437;52.236;5.710;2024-03-02T00:01:39;6.10;;;2.50;;
18501;SDS011;68437;52.236;5.710;2024-03-02T00:04:06;7.65;;;2.45;;
18501;SDS011;68437;52.236;5.710;2024-03-02T00:06:33;4.93;;;2.00;;
18501;SDS011;68437;52.236;5.710;2024-03-02T00:09:02;6.18;;;2.58;;
18501;SDS011;68437;52.236;5.710;2024-03-02T00:11:29;3.53;;;2.30;;
18501;SDS011;68437;52.236;5.710;2024-03-02T00:13:58;4.50;;;2.25;;
18501;SDS011;68437;52.236;5.710;2024-03-02T00:16:27;4.72;;;2.50;;
18501;SDS011;68437;52.236;5.710;2024-03-02T00:18:56;5.75;;;2.40;;
18501;SDS011;68437;52.236;5.710;2024-03-02T00:21:27;4.45;;;2.17;;
18501;SDS011;68437;52.236;5.710;2024-03-02T00:23:57;6.32;;;2.20;;
18501;SDS011;68437;52.236;5.710;2024-03-02T00:26:26;8.45;;;2.15;;
18501;SDS011;68437;52.236;5.710;2024-03-02T00:28:53;4.68;;;2.00;;
18501;SDS011;68437;52.236;5.710;2024-03-02T00:31:21;4.63;;;1.80;;
18501;SDS011;68437;52.236;5.710;2024-03-02T00:33:50;5.47;;;2.08;;
18501;SDS011;68437;52.236;5.710;2024-03-02T00:36:21;3.75;;;1.80;;
18501;SDS011;68437;52.236;5.710;2024-03-02T00:38:51;4.25;;;1.77;;
18501;SDS011;68437;52.236;5.710;2024-03-02T00:41:21;4.25;;;1.80;;
18501;SDS011;68437;52.236;5.710;2024-03-02T00:43:54;4.78;;;2.00;;
18501;SDS011;68437;52.236;5.710;2024-03-02T00:46:24;6.43;;;1.90;;
18501;SDS011;68437;52.236;5.710;2024-03-02T00:48:53;4.60;;;1.70;;
18501;SDS011;68437;52.236;5.710;2024-03-02T00:51:21;3.08;;;1.88;;
18501;SDS011;68437;52.236;5.710;2024-03-02T00:53:49;4.03;;;1.83;;
18501;SDS011;68437;52.236;5.710;2024-03-02T00:56:16;8.65;;;1.90;;
18501;SDS011;68437;52.236;5.710;2024-03-02T00:58:43;5.07;;;2.10;;
18501;SDS011;68437;52.236;5.710;2024-03-02T01:01:11;4.43;;;1.83;;
18501;SDS011;68437;52.236;5.710;2024-03-02T01:03:39;4.20;;;1.98;;
18501;SDS011;68437;52.236;5.710;2024-03-02T01:06:06;3.78;;;1.88;;
18501;SDS011;68437;52.236;5.710;2024-03-02T01:08:33;4.88;;;1.67;;
18501;SDS011;68437;52.236;5.710;2024-03-02T01:11:00;3.25;;;1.73;;
18501;SDS011;68437;52.236;5.710;2024-03-02T01:13:27;3.63;;;1.95;;
18501;SDS011;68437;52.236;5.710;2024-03-02T01:15:54;5.18;;;1.90;;
18501;SDS011;68437;52.236;5.710;2024-03-02T01:18:24;5.95;;;2.10;;
18501;SDS011;68437;52.236;5.710;2024-03-02T01:20:51;4.65;;;1.95;;
18501;SDS011;68437;52.236;5.710;2024-03-02T01:23:20;4.50;;;1.95;;
18501;SDS011;68437;52.236;5.710;2024-03-02T01:25:51;4.53;;;1.90;;
18501;SDS011;68437;52.236;5.710;2024-03-02T01:28:18;4.72;;;1.90;;
18501;SDS011;68437;52.236;5.710;2024-03-02T01:30:45;4.15;;;1.42;;
18501;SDS011;68437;52.236;5.710;2024-03-02T01:33:13;2.75;;;1.38;;
18501;SDS011;68437;52.236;5.710;2024-03-02T01:35:41;2.83;;;1.50;;
18501;SDS011;68437;52.236;5.710;2024-03-02T01:38:08;3.83;;;1.50;;
18501;SDS011;68437;52.236;5.710;2024-03-02T01:40:35;2.03;;;1.20;;
18501;SDS011;68437;52.236;5.710;2024-03-02T01:43:03;5.63;;;1.20;;
18501;SDS011;68437;52.236;5.710;2024-03-02T01:45:30;1.90;;;1.10;;
18501;SDS011;68437;52.236;5.710;2024-03-02T01:47:58;2.35;;;1.10;;
18501;SDS011;68437;52.236;5.710;2024-03-02T01:50:25;2.22;;;1.20;;
18501;SDS011;68437;52.236;5.710;2024-03-02T01:52:54;3.05;;;1.10;;
18501;SDS011;68437;52.236;5.710;2024-03-02T01:55:22;1.08;;;0.98;;
18501;SDS011;68437;52.236;5.710;2024-03-02T01:57:48;1.77;;;1.10;;
18501;SDS011;68437;52.236;5.710;2024-03-02T02:00:17;1.48;;;0.90;;
18501;SDS011;68437;52.236;5.710;2024-03-02T02:02:44;5.85;;;1.17;;
18501;SDS011;68437;52.236;5.710;2024-03-02T02:05:11;1.60;;;0.80;;
18501;SDS011;68437;52.236;5.710;2024-03-02T02:07:38;1.08;;;0.70;;
18501;SDS011;68437;52.236;5.710;2024-03-02T02:10:08;3.47;;;0.90;;
18501;SDS011;68437;52.236;5.710;2024-03-02T02:12:35;2.00;;;0.80;;
18501;SDS011;68437;52.236;5.710;2024-03-02T02:15:03;1.10;;;0.80;;
18501;SDS011;68437;52.236;5.710;2024-03-02T02:17:30;1.23;;;0.80;;
18501;SDS011;68437;52.236;5.710;2024-03-02T02:19:57;1.15;;;0.88;;
18501;SDS011;68437;52.236;5.710;2024-03-02T02:22:25;1.10;;;0.70;;
18501;SDS011;68437;52.236;5.710;2024-03-02T02:24:52;4.50;;;0.80;;
18501;SDS011;68437;52.236;5.710;2024-03-02T02:27:19;1.85;;;0.80;;
18501;SDS011;68437;52.236;5.710;2024-03-02T02:29:46;1.10;;;0.80;;
18501;SDS011;68437;52.236;5.710;2024-03-02T02:32:13;0.95;;;0.85;;
18501;SDS011;68437;52.236;5.710;2024-03-02T02:34:42;1.02;;;0.80;;
18501;SDS011;68437;52.236;5.710;2024-03-02T02:37:09;1.67;;;0.60;;
18501;SDS011;68437;52.236;5.710;2024-03-02T02:39:38;1.20;;;0.90;;
18501;SDS011;68437;52.236;5.710;2024-03-02T02:42:05;0.98;;;0.70;;
18501;SDS011;68437;52.236;5.710;2024-03-02T02:44:32;1.35;;;0.90;;
18501;SDS011;68437;52.236;5.710;2024-03-02T02:46:59;1.55;;;0.75;;
18501;SDS011;68437;52.236;5.710;2024-03-02T02:49:25;2.13;;;1.00;;
18501;SDS011;68437;52.236;5.710;2024-03-02T02:51:52;3.33;;;0.85;;
18501;SDS011;68437;52.236;5.710;2024-03-02T02:54:19;1.15;;;0.90;;
18501;SDS011;68437;52.236;5.710;2024-03-02T02:56:47;2.22;;;0.90;;
18501;SDS011;68437;52.236;5.710;2024-03-02T02:59:14;2.05;;;0.95;;
18501;SDS011;68437;52.236;5.710;2024-03-02T03:01:41;0.85;;;0.80;;
18501;SDS011;68437;52.236;5.710;2024-03-02T03:04:08;1.52;;;1.00;;
18501;SDS011;68437;52.236;5.710;2024-03-02T03:06:35;2.20;;;0.90;;
18501;SDS011;68437;52.236;5.710;2024-03-02T03:09:01;1.20;;;0.88;;
18501;SDS011;68437;52.236;5.710;2024-03-02T03:11:28;1.02;;;0.82;;
18501;SDS011;68437;52.236;5.710;2024-03-02T03:13:57;1.25;;;0.90;;
18501;SDS011;68437;52.236;5.710;2024-03-02T03:16:25;1.48;;;0.90;;
18501;SDS011;68437;52.236;5.710;2024-03-02T03:18:52;1.88;;;1.00;;
18501;SDS011;68437;52.236;5.710;2024-03-02T03:21:18;3.40;;;0.90;;
18501;SDS011;68437;52.236;5.710;2024-03-02T03:23:46;0.80;;;0.70;;
18501;SDS011;68437;52.236;5.710;2024-03-02T03:26:13;2.08;;;0.80;;
18501;SDS011;68437;52.236;5.710;2024-03-02T03:28:40;3.13;;;1.10;;
18501;SDS011;68437;52.236;5.710;2024-03-02T03:31:08;1.45;;;0.93;;
18501;SDS011;68437;52.236;5.710;2024-03-02T03:33:37;1.30;;;1.10;;
18501;SDS011;68437;52.236;5.710;2024-03-02T03:36:04;2.15;;;1.20;;
18501;SDS011;68437;52.236;5.710;2024-03-02T03:38:31;1.20;;;1.00;;
18501;SDS011;68437;52.236;5.710;2024-03-02T03:41:01;1.60;;;1.10;;
18501;SDS011;68437;52.236;5.710;2024-03-02T03:43:27;1.75;;;1.05;;
18501;SDS011;68437;52.236;5.710;2024-03-02T03:45:54;2.20;;;1.20;;
18501;SDS011;68437;52.236;5.710;2024-03-02T03:48:23;1.65;;;1.00;;
18501;SDS011;68437;52.236;5.710;2024-03-02T03:50:55;2.17;;;1.10;;
18501;SDS011;68437;52.236;5.710;2024-03-02T03:53:22;1.77;;;1.10;;
18501;SDS011;68437;52.236;5.710;2024-03-02T03:55:49;5.28;;;1.40;;
18501;SDS011;68437;52.236;5.710;2024-03-02T03:58:16;3.60;;;1.50;;
18501;SDS011;68437;52.236;5.710;2024-03-02T04:00:43;2.88;;;1.50;;
18501;SDS011;68437;52.236;5.710;2024-03-02T04:03:10;2.72;;;1.50;;
18501;SDS011;68437;52.236;5.710;2024-03-02T04:05:39;4.72;;;1.60;;
18501;SDS011;68437;52.236;5.710;2024-03-02T04:08:06;2.38;;;1.40;;
18501;SDS011;68437;52.236;5.710;2024-03-02T04:10:33;2.40;;;1.70;;
18501;SDS011;68437;52.236;5.710;2024-03-02T04:13:00;2.63;;;1.60;;
18501;SDS011;68437;52.236;5.710;2024-03-02T04:15:27;2.05;;;1.42;;
18501;SDS011;68437;52.236;5.710;2024-03-02T04:17:53;4.20;;;1.60;;
18501;SDS011;68437;52.236;5.710;2024-03-02T04:20:20;3.30;;;1.42;;
18501;SDS011;68437;52.236;5.710;2024-03-02T04:22:48;2.95;;;1.80;;
18501;SDS011;68437;52.236;5.710;2024-03-02T04:25:15;2.20;;;1.40;;
18501;SDS011;68437;52.236;5.710;2024-03-02T04:27:42;2.33;;;1.50;;
18501;SDS011;68437;52.236;5.710;2024-03-02T04:30:09;1.95;;;1.40;;
18501;SDS011;68437;52.236;5.710;2024-03-02T04:32:37;2.20;;;1.30;;
18501;SDS011;68437;52.236;5.710;2024-03-02T04:35:04;2.75;;;1.52;;
18501;SDS011;68437;52.236;5.710;2024-03-02T04:37:34;1.98;;;1.33;;
18501;SDS011;68437;52.236;5.710;2024-03-02T04:40:02;1.92;;;1.40;;
18501;SDS011;68437;52.236;5.710;2024-03-02T04:42:30;2.60;;;1.30;;
18501;SDS011;68437;52.236;5.710;2024-03-02T04:44:57;2.03;;;1.20;;
18501;SDS011;68437;52.236;5.710;2024-03-02T04:47:26;3.42;;;1.10;;
18501;SDS011;68437;52.236;5.710;2024-03-02T04:49:53;3.33;;;1.20;;
18501;SDS011;68437;52.236;5.710;2024-03-02T04:52:20;1.63;;;1.15;;
18501;SDS011;68437;52.236;5.710;2024-03-02T04:54:47;1.65;;;1.40;;
18501;SDS011;68437;52.236;5.710;2024-03-02T04:57:31;2.88;;;1.30;;
18501;SDS011;68437;52.236;5.710;2024-03-02T04:59:58;2.05;;;1.10;;
18501;SDS011;68437;52.236;5.710;2024-03-02T05:02:25;2.75;;;1.35;;
18501;SDS011;68437;52.236;5.710;2024-03-02T05:04:52;2.70;;;1.40;;
18501;SDS011;68437;52.236;5.710;2024-03-02T05:07:19;6.13;;;1.50;;
18501;SDS011;68437;52.236;5.710;2024-03-02T05:09:45;2.55;;;1.35;;
18501;SDS011;68437;52.236;5.710;2024-03-02T05:12:13;2.70;;;1.40;;
18501;SDS011;68437;52.236;5.710;2024-03-02T05:15:07;2.22;;;1.38;;
18501;SDS011;68437;52.236;5.710;2024-03-02T05:17:35;3.50;;;1.20;;
18501;SDS011;68437;52.236;5.710;2024-03-02T05:20:02;1.90;;;1.30;;
18501;SDS011;68437;52.236;5.710;2024-03-02T05:22:30;2.25;;;1.23;;
18501;SDS011;68437;52.236;5.710;2024-03-02T05:24:56;5.68;;;1.70;;
18501;SDS011;68437;52.236;5.710;2024-03-02T05:27:24;2.63;;;1.38;;
18501;SDS011;68437;52.236;5.710;2024-03-02T05:29:51;1.85;;;1.35;;
18501;SDS011;68437;52.236;5.710;2024-03-02T05:32:19;1.77;;;1.45;;
18501;SDS011;68437;52.236;5.710;2024-03-02T05:34:46;2.75;;;1.30;;
18501;SDS011;68437;52.236;5.710;2024-03-02T05:37:12;4.20;;;1.40;;
18501;SDS011;68437;52.236;5.710;2024-03-02T05:39:39;3.25;;;1.30;;
18501;SDS011;68437;52.236;5.710;2024-03-02T05:42:06;7.32;;;1.40;;
18501;SDS011;68437;52.236;5.710;2024-03-02T05:44:33;5.00;;;1.40;;
18501;SDS011;68437;52.236;5.710;2024-03-02T05:47:00;5.30;;;1.33;;
18501;SDS011;68437;52.236;5.710;2024-03-02T05:49:29;2.65;;;1.13;;
18501;SDS011;68437;52.236;5.710;2024-03-02T05:51:56;2.78;;;1.17;;
18501;SDS011;68437;52.236;5.710;2024-03-02T05:54:23;2.72;;;1.10;;
18501;SDS011;68437;52.236;5.710;2024-03-02T05:56:49;4.60;;;1.40;;
18501;SDS011;68437;52.236;5.710;2024-03-02T05:59:16;2.40;;;1.00;;
18501;SDS011;68437;52.236;5.710;2024-03-02T06:01:43;3.25;;;1.10;;
18501;SDS011;68437;52.236;5.710;2024-03-02T06:04:15;2.67;;;1.02;;
18501;SDS011;68437;52.236;5.710;2024-03-02T06:06:44;3.47;;;1.50;;
18501;SDS011;68437;52.236;5.710;2024-03-02T06:09:10;4.07;;;1.50;;
18501;SDS011;68437;52.236;5.710;2024-03-02T06:11:38;2.03;;;1.50;;
18501;SDS011;68437;52.236;5.710;2024-03-02T06:14:06;2.90;;;1.35;;
18501;SDS011;68437;52.236;5.710;2024-03-02T06:16:34;2.37;;;1.43;;
18501;SDS011;68437;52.236;5.710;2024-03-02T06:19:01;2.90;;;1.50;;
18501;SDS011;68437;52.236;5.710;2024-03-02T06:21:28;2.95;;;1.50;;
18501;SDS011;68437;52.236;5.710;2024-03-02T06:23:56;5.25;;;1.20;;
18501;SDS011;68437;52.236;5.710;2024-03-02T06:26:23;4.10;;;1.58;;
18501;SDS011;68437;52.236;5.710;2024-03-02T06:28:50;4.43;;;1.80;;
18501;SDS011;68437;52.236;5.710;2024-03-02T06:31:17;4.53;;;1.50;;
18501;SDS011;68437;52.236;5.710;2024-03-02T06:33:42;5.55;;;1.63;;
18501;SDS011;68437;52.236;5.710;2024-03-02T06:36:09;2.78;;;1.40;;
18501;SDS011;68437;52.236;5.710;2024-03-02T06:38:40;4.85;;;1.30;;
18501;SDS011;68437;52.236;5.710;2024-03-02T06:41:08;4.47;;;1.55;;
18501;SDS011;68437;52.236;5.710;2024-03-02T06:43:35;3.58;;;1.40;;
18501;SDS011;68437;52.236;5.710;2024-03-02T06:46:04;3.13;;;1.70;;
18501;SDS011;68437;52.236;5.710;2024-03-02T06:48:34;2.77;;;1.70;;
18501;SDS011;68437;52.236;5.710;2024-03-02T06:51:01;4.85;;;2.00;;
18501;SDS011;68437;52.236;5.710;2024-03-02T06:53:28;3.03;;;1.85;;
18501;SDS011;68437;52.236;5.710;2024-03-02T06:55:55;4.55;;;1.80;;
18501;SDS011;68437;52.236;5.710;2024-03-02T06:58:23;4.83;;;1.70;;
18501;SDS011;68437;52.236;5.710;2024-03-02T07:00:50;5.88;;;1.60;;
18501;SDS011;68437;52.236;5.710;2024-03-02T07:03:17;5.10;;;1.45;;
18501;SDS011;68437;52.236;5.710;2024-03-02T07:05:44;2.90;;;1.60;;
18501;SDS011;68437;52.236;5.710;2024-03-02T07:08:12;3.55;;;1.60;;
18501;SDS011;68437;52.236;5.710;2024-03-02T07:10:39;2.88;;;1.25;;
18501;SDS011;68437;52.236;5.710;2024-03-02T07:13:06;4.60;;;1.38;;
18501;SDS011;68437;52.236;5.710;2024-03-02T07:15:40;4.93;;;1.60;;
18501;SDS011;68437;52.236;5.710;2024-03-02T07:18:30;3.80;;;1.50;;
18501;SDS011;68437;52.236;5.710;2024-03-02T07:21:02;4.03;;;1.65;;
18501;SDS011;68437;52.236;5.710;2024-03-02T07:23:29;4.22;;;1.70;;
18501;SDS011;68437;52.236;5.710;2024-03-02T07:25:57;3.55;;;1.60;;
18501;SDS011;68437;52.236;5.710;2024-03-02T07:28:24;5.20;;;1.70;;
18501;SDS011;68437;52.236;5.710;2024-03-02T07:30:58;4.43;;;1.40;;
18501;SDS011;68437;52.236;5.710;2024-03-02T07:33:26;5.70;;;1.50;;
18501;SDS011;68437;52.236;5.710;2024-03-02T07:35:53;6.05;;;1.73;;
18501;SDS011;68437;52.236;5.710;2024-03-02T07:38:20;4.13;;;1.25;;
18501;SDS011;68437;52.236;5.710;2024-03-02T07:40:47;4.38;;;1.42;;
18501;SDS011;68437;52.236;5.710;2024-03-02T07:43:15;2.83;;;1.20;;
18501;SDS011;68437;52.236;5.710;2024-03-02T07:45:42;3.53;;;1.58;;
18501;SDS011;68437;52.236;5.710;2024-03-02T07:48:11;4.20;;;1.40;;
18501;SDS011;68437;52.236;5.710;2024-03-02T07:50:40;3.85;;;1.38;;
18501;SDS011;68437;52.236;5.710;2024-03-02T07:53:08;2.50;;;1.40;;
18501;SDS011;68437;52.236;5.710;2024-03-02T07:55:35;3.50;;;1.30;;
18501;SDS011;68437;52.236;5.710;2024-03-02T07:58:02;3.83;;;1.10;;
18501;SDS011;68437;52.236;5.710;2024-03-02T08:00:29;3.20;;;0.90;;
18501;SDS011;68437;52.236;5.710;2024-03-02T08:02:56;9.40;;;1.10;;
18501;SDS011;68437;52.236;5.710;2024-03-02T08:05:24;7.13;;;1.65;;
18501;SDS011;68437;52.236;5.710;2024-03-02T08:07:52;2.58;;;0.93;;
18501;SDS011;68437;52.236;5.710;2024-03-02T08:10:22;3.33;;;1.10;;
18501;SDS011;68437;52.236;5.710;2024-03-02T08:12:49;3.55;;;1.20;;
18501;SDS011;68437;52.236;5.710;2024-03-02T08:15:15;3.40;;;1.08;;
18501;SDS011;68437;52.236;5.710;2024-03-02T08:17:42;2.53;;;1.10;;
18501;SDS011;68437;52.236;5.710;2024-03-02T08:20:14;5.28;;;1.23;;
18501;SDS011;68437;52.236;5.710;2024-03-02T08:22:43;5.32;;;1.40;;
18501;SDS011;68437;52.236;5.710;2024-03-02T08:25:09;5.65;;;1.42;;
18501;SDS011;68437;52.236;5.710;2024-03-02T08:27:37;1.80;;;1.10;;
18501;SDS011;68437;52.236;5.710;2024-03-02T08:30:05;4.43;;;1.30;;
18501;SDS011;68437;52.236;5.710;2024-03-02T08:32:33;4.03;;;1.30;;
18501;SDS011;68437;52.236;5.710;2024-03-02T08:35:00;3.05;;;1.40;;
18501;SDS011;68437;52.236;5.710;2024-03-02T08:37:28;4.13;;;1.20;;
18501;SDS011;68437;52.236;5.710;2024-03-02T08:39:56;2.53;;;0.98;;
18501;SDS011;68437;52.236;5.710;2024-03-02T08:42:23;4.25;;;1.30;;
18501;SDS011;68437;52.236;5.710;2024-03-02T08:44:50;5.78;;;1.10;;
18501;SDS011;68437;52.236;5.710;2024-03-02T08:47:22;4.93;;;1.35;;
18501;SDS011;68437;52.236;5.710;2024-03-02T08:49:51;3.92;;;1.00;;
18501;SDS011;68437;52.236;5.710;2024-03-02T08:52:18;4.43;;;1.20;;
18501;SDS011;68437;52.236;5.710;2024-03-02T08:54:45;4.38;;;1.55;;
18501;SDS011;68437;52.236;5.710;2024-03-02T08:57:15;9.75;;;2.90;;
18501;SDS011;68437;52.236;5.710;2024-03-02T08:59:42;4.70;;;2.33;;
18501;SDS011;68437;52.236;5.710;2024-03-02T09:02:11;7.88;;;1.88;;
18501;SDS011;68437;52.236;5.710;2024-03-02T09:04:38;3.58;;;1.25;;
18501;SDS011;68437;52.236;5.710;2024-03-02T09:07:05;5.60;;;1.17;;
18501;SDS011;68437;52.236;5.710;2024-03-02T09:09:32;3.85;;;1.05;;
18501;SDS011;68437;52.236;5.710;2024-03-02T09:11:59;5.00;;;1.13;;
18501;SDS011;68437;52.236;5.710;2024-03-02T09:14:27;5.10;;;1.20;;
18501;SDS011;68437;52.236;5.710;2024-03-02T09:16:54;4.47;;;1.20;;
18501;SDS011;68437;52.236;5.710;2024-03-02T09:19:21;3.97;;;1.17;;
18501;SDS011;68437;52.236;5.710;2024-03-02T09:21:48;2.92;;;1.15;;
18501;SDS011;68437;52.236;5.710;2024-03-02T09:24:15;2.65;;;1.00;;
18501;SDS011;68437;52.236;5.710;2024-03-02T09:26:42;4.25;;;1.00;;
18501;SDS011;68437;52.236;5.710;2024-03-02T09:29:08;5.28;;;1.10;;
18501;SDS011;68437;52.236;5.710;2024-03-02T09:31:40;5.38;;;1.27;;
18501;SDS011;68437;52.236;5.710;2024-03-02T09:34:07;4.60;;;1.08;;
18501;SDS011;68437;52.236;5.710;2024-03-02T09:36:35;5.18;;;1.08;;
18501;SDS011;68437;52.236;5.710;2024-03-02T09:39:02;5.05;;;1.17;;
18501;SDS011;68437;52.236;5.710;2024-03-02T09:41:29;3.00;;;0.90;;
18501;SDS011;68437;52.236;5.710;2024-03-02T09:43:58;5.20;;;1.10;;
18501;SDS011;68437;52.236;5.710;2024-03-02T09:46:25;4.72;;;1.17;;
18501;SDS011;68437;52.236;5.710;2024-03-02T09:48:54;5.38;;;1.10;;
18501;SDS011;68437;52.236;5.710;2024-03-02T09:51:21;5.45;;;1.13;;
18501;SDS011;68437;52.236;5.710;2024-03-02T09:53:48;5.82;;;1.08;;
18501;SDS011;68437;52.236;5.710;2024-03-02T09:56:16;7.72;;;1.23;;
18501;SDS011;68437;52.236;5.710;2024-03-02T09:58:43;5.28;;;0.98;;
18501;SDS011;68437;52.236;5.710;2024-03-02T10:01:10;4.30;;;1.10;;
18501;SDS011;68437;52.236;5.710;2024-03-02T10:03:37;7.40;;;1.10;;
18501;SDS011;68437;52.236;5.710;2024-03-02T10:06:21;8.65;;;1.10;;
18501;SDS011;68437;52.236;5.710;2024-03-02T10:08:49;6.50;;;1.00;;
18501;SDS011;68437;52.236;5.710;2024-03-02T10:11:28;5.15;;;1.02;;
18501;SDS011;68437;52.236;5.710;2024-03-02T10:14:04;4.75;;;1.00;;
18501;SDS011;68437;52.236;5.710;2024-03-02T10:16:33;7.03;;;1.20;;
18501;SDS011;68437;52.236;5.710;2024-03-02T10:19:14;6.50;;;1.10;;
18501;SDS011;68437;52.236;5.710;2024-03-02T10:21:44;3.95;;;1.10;;
18501;SDS011;68437;52.236;5.710;2024-03-02T10:24:11;8.45;;;1.10;;
18501;SDS011;68437;52.236;5.710;2024-03-02T10:26:41;4.75;;;1.00;;
18501;SDS011;68437;52.236;5.710;2024-03-02T10:29:08;11.13;;;1.35;;
18501;SDS011;68437;52.236;5.710;2024-03-02T10:31:36;5.65;;;1.20;;
18501;SDS011;68437;52.236;5.710;2024-03-02T10:34:03;7.25;;;1.30;;
18501;SDS011;68437;52.236;5.710;2024-03-02T10:36:31;2.97;;;1.00;;
18501;SDS011;68437;52.236;5.710;2024-03-02T10:39:00;2.92;;;1.00;;
18501;SDS011;68437;52.236;5.710;2024-03-02T10:41:29;4.50;;;1.00;;
18501;SDS011;68437;52.236;5.710;2024-03-02T10:44:01;5.93;;;1.52;;
18501;SDS011;68437;52.236;5.710;2024-03-02T10:46:28;5.35;;;1.10;;
18501;SDS011;68437;52.236;5.710;2024-03-02T10:48:56;4.35;;;1.27;;
18501;SDS011;68437;52.236;5.710;2024-03-02T10:51:24;6.20;;;1.20;;
18501;SDS011;68437;52.236;5.710;2024-03-02T10:53:57;5.05;;;1.27;;
18501;SDS011;68437;52.236;5.710;2024-03-02T10:56:27;5.63;;;1.00;;
18501;SDS011;68437;52.236;5.710;2024-03-02T10:58:56;4.72;;;1.20;;
18501;SDS011;68437;52.236;5.710;2024-03-02T11:01:29;4.68;;;1.10;;
18501;SDS011;68437;52.236;5.710;2024-03-02T11:03:59;4.10;;;1.08;;
18501;SDS011;68437;52.236;5.710;2024-03-02T11:06:28;3.10;;;1.00;;
18501;SDS011;68437;52.236;5.710;2024-03-02T11:08:58;5.18;;;1.40;;
18501;SDS011;68437;52.236;5.710;2024-03-02T11:11:34;4.97;;;1.20;;
18501;SDS011;68437;52.236;5.710;2024-03-02T11:14:04;5.20;;;1.38;;
18501;SDS011;68437;52.236;5.710;2024-03-02T11:16:34;6.30;;;1.20;;
18501;SDS011;68437;52.236;5.710;2024-03-02T11:19:03;6.47;;;1.15;;
18501;SDS011;68437;52.236;5.710;2024-03-02T11:21:32;4.57;;;1.10;;
18501;SDS011;68437;52.236;5.710;2024-03-02T11:23:59;5.43;;;1.20;;
18501;SDS011;68437;52.236;5.710;2024-03-02T11:26:27;3.53;;;1.20;;
18501;SDS011;68437;52.236;5.710;2024-03-02T11:28:58;4.93;;;0.93;;
18501;SDS011;68437;52.236;5.710;2024-03-02T11:34:28;4.78;;;0.98;;
18501;SDS011;68437;52.236;5.710;2024-03-02T11:36:58;4.38;;;0.88;;
18501;SDS011;68437;52.236;5.710;2024-03-02T11:39:25;3.15;;;1.00;;
18501;SDS011;68437;52.236;5.710;2024-03-02T11:41:54;5.85;;;0.95;;
18501;SDS011;68437;52.236;5.710;2024-03-02T11:44:22;3.20;;;0.80;;
18501;SDS011;68437;52.236;5.710;2024-03-02T11:46:51;5.88;;;0.90;;
18501;SDS011;68437;52.236;5.710;2024-03-02T11:49:20;5.07;;;1.10;;
18501;SDS011;68437;52.236;5.710;2024-03-02T11:52:03;4.22;;;1.02;;
18501;SDS011;68437;52.236;5.710;2024-03-02T11:54:32;3.55;;;1.08;;
18501;SDS011;68437;52.236;5.710;2024-03-02T11:57:00;5.72;;;1.15;;
18501;SDS011;68437;52.236;5.710;2024-03-02T11:59:29;3.03;;;0.73;;
18501;SDS011;68437;52.236;5.710;2024-03-02T12:01:56;4.90;;;0.90;;
18501;SDS011;68437;52.236;5.710;2024-03-02T12:04:24;4.97;;;0.93;;
18501;SDS011;68437;52.236;5.710;2024-03-02T12:06:54;4.53;;;0.90;;
18501;SDS011;68437;52.236;5.710;2024-03-02T12:09:21;5.30;;;0.90;;
18501;SDS011;68437;52.236;5.710;2024-03-02T12:11:56;2.83;;;0.93;;
18501;SDS011;68437;52.236;5.710;2024-03-02T12:14:29;3.80;;;0.80;;
18501;SDS011;68437;52.236;5.710;2024-03-02T12:16:56;3.88;;;0.90;;
18501;SDS011;68437;52.236;5.710;2024-03-02T12:19:28;2.08;;;0.90;;
18501;SDS011;68437;52.236;5.710;2024-03-02T12:21:56;7.15;;;1.27;;
18501;SDS011;68437;52.236;5.710;2024-03-02T12:24:23;3.35;;;1.00;;
18501;SDS011;68437;52.236;5.710;2024-03-02T12:26:50;2.35;;;0.80;;
18501;SDS011;68437;52.236;5.710;2024-03-02T12:29:18;4.95;;;0.80;;
18501;SDS011;68437;52.236;5.710;2024-03-02T12:31:47;4.57;;;0.80;;
18501;SDS011;68437;52.236;5.710;2024-03-02T12:34:15;6.57;;;0.70;;
18501;SDS011;68437;52.236;5.710;2024-03-02T12:36:43;3.28;;;0.80;;
18501;SDS011;68437;52.236;5.710;2024-03-02T12:39:12;6.35;;;0.70;;
18501;SDS011;68437;52.236;5.710;2024-03-02T12:41:39;2.65;;;0.82;;
18501;SDS011;68437;52.236;5.710;2024-03-02T12:44:07;5.32;;;1.50;;
18501;SDS011;68437;52.236;5.710;2024-03-02T12:46:34;4.18;;;1.40;;
18501;SDS011;68437;52.236;5.710;2024-03-02T12:49:07;4.35;;;1.05;;
18501;SDS011;68437;52.236;5.710;2024-03-02T12:51:36;5.40;;;1.00;;
18501;SDS011;68437;52.236;5.710;2024-03-02T12:54:05;3.50;;;1.40;;
18501;SDS011;68437;52.236;5.710;2024-03-02T12:56:32;4.22;;;1.58;;
18501;SDS011;68437;52.236;5.710;2024-03-02T12:58:59;5.60;;;1.08;;
18501;SDS011;68437;52.236;5.710;2024-03-02T13:01:29;5.72;;;1.70;;
18501;SDS011;68437;52.236;5.710;2024-03-02T13:03:59;3.58;;;1.45;;
18501;SDS011;68437;52.236;5.710;2024-03-02T13:06:27;6.30;;;1.73;;
18501;SDS011;68437;52.236;5.710;2024-03-02T13:08:54;4.55;;;1.60;;
18501;SDS011;68437;52.236;5.710;2024-03-02T13:11:21;3.25;;;1.10;;
18501;SDS011;68437;52.236;5.710;2024-03-02T13:13:49;3.75;;;1.00;;
18501;SDS011;68437;52.236;5.710;2024-03-02T13:16:16;5.80;;;1.10;;
18501;SDS011;68437;52.236;5.710;2024-03-02T13:18:45;6.50;;;1.15;;
18501;SDS011;68437;52.236;5.710;2024-03-02T13:21:12;2.67;;;0.90;;
18501;SDS011;68437;52.236;5.710;2024-03-02T13:23:40;3.50;;;0.88;;
18501;SDS011;68437;52.236;5.710;2024-03-02T13:26:07;4.38;;;0.98;;
18501;SDS011;68437;52.236;5.710;2024-03-02T13:28:35;3.88;;;0.90;;
18501;SDS011;68437;52.236;5.710;2024-03-02T13:31:03;2.70;;;1.00;;
18501;SDS011;68437;52.236;5.710;2024-03-02T13:33:31;3.42;;;1.00;;
18501;SDS011;68437;52.236;5.710;2024-03-02T13:35:58;5.35;;;1.23;;
18501;SDS011;68437;52.236;5.710;2024-03-02T13:38:24;5.65;;;1.35;;
18501;SDS011;68437;52.236;5.710;2024-03-02T13:40:53;2.85;;;1.50;;
18501;SDS011;68437;52.236;5.710;2024-03-02T13:43:20;4.25;;;1.40;;
18501;SDS011;68437;52.236;5.710;2024-03-02T13:45:48;3.90;;;1.40;;
18501;SDS011;68437;52.236;5.710;2024-03-02T13:48:17;5.50;;;1.27;;
18501;SDS011;68437;52.236;5.710;2024-03-02T13:50:43;5.00;;;1.08;;
18501;SDS011;68437;52.236;5.710;2024-03-02T13:53:11;4.18;;;0.88;;
18501;SDS011;68437;52.236;5.710;2024-03-02T13:55:41;5.70;;;1.08;;
18501;SDS011;68437;52.236;5.710;2024-03-02T13:58:09;6.43;;;1.27;;
18501;SDS011;68437;52.236;5.710;2024-03-02T14:00:36;2.33;;;0.90;;
18501;SDS011;68437;52.236;5.710;2024-03-02T14:03:04;3.40;;;1.10;;
18501;SDS011;68437;52.236;5.710;2024-03-02T14:05:32;4.15;;;1.10;;
18501;SDS011;68437;52.236;5.710;2024-03-02T14:07:59;3.47;;;1.67;;
18501;SDS011;68437;52.236;5.710;2024-03-02T14:10:26;6.43;;;1.75;;
18501;SDS011;68437;52.236;5.710;2024-03-02T14:12:53;3.72;;;1.35;;
18501;SDS011;68437;52.236;5.710;2024-03-02T14:15:22;3.80;;;1.30;;
18501;SDS011;68437;52.236;5.710;2024-03-02T14:17:49;3.50;;;1.50;;
18501;SDS011;68437;52.236;5.710;2024-03-02T14:20:17;4.65;;;1.92;;
18501;SDS011;68437;52.236;5.710;2024-03-02T14:22:47;4.03;;;1.85;;
18501;SDS011;68437;52.236;5.710;2024-03-02T14:25:14;4.63;;;1.70;;
18501;SDS011;68437;52.236;5.710;2024-03-02T14:27:41;5.57;;;1.88;;
18501;SDS011;68437;52.236;5.710;2024-03-02T14:30:08;8.40;;;2.33;;
18501;SDS011;68437;52.236;5.710;2024-03-02T14:32:38;4.18;;;1.95;;
18501;SDS011;68437;52.236;5.710;2024-03-02T14:35:05;4.35;;;1.80;;
18501;SDS011;68437;52.236;5.710;2024-03-02T14:37:36;3.35;;;1.60;;
18501;SDS011;68437;52.236;5.710;2024-03-02T14:40:03;3.60;;;1.77;;
18501;SDS011;68437;52.236;5.710;2024-03-02T14:42:31;3.88;;;1.33;;
18501;SDS011;68437;52.236;5.710;2024-03-02T14:44:58;6.15;;;1.75;;
18501;SDS011;68437;52.236;5.710;2024-03-02T14:47:26;6.00;;;1.67;;
18501;SDS011;68437;52.236;5.710;2024-03-02T14:49:55;2.20;;;1.15;;
18501;SDS011;68437;52.236;5.710;2024-03-02T14:52:22;4.75;;;1.70;;
18501;SDS011;68437;52.236;5.710;2024-03-02T14:54:50;7.40;;;1.60;;
18501;SDS011;68437;52.236;5.710;2024-03-02T14:57:19;3.60;;;1.40;;